createdAt,value
2018-11-01T00:00:38.812Z,8.80
2018-11-01T00:03:14.301Z,8.70
2018-11-01T00:05:49.576Z,8.80
2018-11-01T00:08:25.281Z,8.70
2018-11-01T00:11:00.861Z,8.80
2018-11-01T00:13:36.451Z,8.70
2018-11-01T00:16:11.778Z,8.60
2018-11-01T00:18:47.537Z,8.60
2018-11-01T00:21:22.956Z,8.60
2018-11-01T00:23:58.599Z,8.60
2018-11-01T00:26:34.071Z,8.60
2018-11-01T00:29:09.709Z,8.60
2018-11-01T00:31:45.087Z,8.60
2018-11-01T00:34:20.681Z,8.60
2018-11-01T00:36:56.077Z,8.50
2018-11-01T00:39:31.583Z,8.50
2018-11-01T00:42:07.089Z,8.40
2018-11-01T00:44:42.671Z,8.50
2018-11-01T00:47:18.232Z,8.50
2018-11-01T00:49:53.690Z,8.50
2018-11-01T00:52:29.165Z,8.50
2018-11-01T00:55:04.707Z,8.40
2018-11-01T00:57:40.809Z,8.40
2018-11-01T01:00:16.974Z,8.30
2018-11-01T01:02:52.352Z,8.30
2018-11-01T01:05:27.872Z,8.30
2018-11-01T01:08:03.145Z,8.20
2018-11-01T01:10:38.830Z,8.30
2018-11-01T01:13:14.105Z,8.30
2018-11-01T01:15:49.744Z,8.40
2018-11-01T01:18:25.069Z,8.40
2018-11-01T01:21:00.643Z,8.40
2018-11-01T01:23:36.726Z,8.40
2018-11-01T01:26:12.252Z,8.50
2018-11-01T01:28:47.549Z,8.40
2018-11-01T01:31:23.233Z,8.40
2018-11-01T01:33:58.572Z,8.40
2018-11-01T01:36:34.129Z,8.40
2018-11-01T01:39:10.369Z,8.40
2018-11-01T01:41:45.827Z,8.40
2018-11-01T01:44:21.141Z,8.40
2018-11-01T01:46:57.044Z,8.50
2018-11-01T01:49:32.493Z,8.50
2018-11-01T01:52:07.872Z,8.40
2018-11-01T01:54:43.245Z,8.40
2018-11-01T01:57:18.856Z,8.40
2018-11-01T01:59:54.201Z,8.40
2018-11-01T02:02:29.688Z,8.40
2018-11-01T02:05:05.779Z,8.40
2018-11-01T02:07:41.380Z,8.40
2018-11-01T02:10:17.759Z,8.40
2018-11-01T02:12:53.109Z,8.40
2018-11-01T02:15:28.441Z,8.40
2018-11-01T02:18:03.853Z,8.40
2018-11-01T02:20:39.081Z,8.40
2018-11-01T02:23:15.021Z,8.40
2018-11-01T02:25:50.428Z,8.40
2018-11-01T02:28:26.001Z,8.40
2018-11-01T02:31:01.472Z,8.40
2018-11-01T02:33:37.096Z,8.40
2018-11-01T02:36:12.302Z,8.40
2018-11-01T02:38:47.937Z,8.50
2018-11-01T02:41:23.501Z,8.50
2018-11-01T02:43:59.184Z,8.50
2018-11-01T02:46:34.518Z,8.50
2018-11-01T02:49:10.485Z,8.50
2018-11-01T02:51:45.980Z,8.50
2018-11-01T02:54:21.421Z,8.50
2018-11-01T02:56:56.610Z,8.50
2018-11-01T02:59:32.092Z,8.50
2018-11-01T03:02:07.540Z,8.50
2018-11-01T03:04:43.160Z,8.50
2018-11-01T03:07:18.333Z,8.50
2018-11-01T03:09:53.902Z,8.50
2018-11-01T03:12:29.479Z,8.50
2018-11-01T03:15:06.249Z,8.50
2018-11-01T03:17:41.565Z,8.40
2018-11-01T03:20:17.156Z,8.40
2018-11-01T03:22:52.673Z,8.40
2018-11-01T03:25:28.189Z,8.40
2018-11-01T03:28:03.681Z,8.40
2018-11-01T03:30:39.345Z,8.40
2018-11-01T03:33:14.773Z,8.40
2018-11-01T03:35:50.392Z,8.40
2018-11-01T03:38:25.907Z,8.40
2018-11-01T03:41:01.510Z,8.40
2018-11-01T03:43:36.797Z,8.40
2018-11-01T03:46:12.343Z,8.40
2018-11-01T03:48:48.096Z,8.40
2018-11-01T03:51:23.557Z,8.40
2018-11-01T03:53:58.959Z,8.40
2018-11-01T03:56:34.392Z,8.30
2018-11-01T03:59:09.697Z,8.30
2018-11-01T04:01:45.174Z,8.40
2018-11-01T04:04:20.606Z,8.30
2018-11-01T04:06:56.048Z,8.30
2018-11-01T04:09:31.369Z,8.20
2018-11-01T04:12:07.079Z,8.20
2018-11-01T04:14:42.445Z,8.20
2018-11-01T04:17:17.957Z,8.20
2018-11-01T04:19:53.456Z,8.10
2018-11-01T04:22:29.179Z,8.10
2018-11-01T04:25:04.824Z,8.00
2018-11-01T04:27:40.376Z,7.90
2018-11-01T04:30:15.677Z,7.80
2018-11-01T04:32:51.116Z,7.70
2018-11-01T04:35:26.513Z,7.70
2018-11-01T04:38:01.938Z,7.60
2018-11-01T04:40:37.315Z,7.60
2018-11-01T04:43:12.750Z,7.50
2018-11-01T04:45:48.224Z,7.50
2018-11-01T04:48:23.724Z,7.50
2018-11-01T04:50:59.191Z,7.50
2018-11-01T04:53:34.557Z,7.50
2018-11-01T04:56:10.086Z,7.40
2018-11-01T04:58:45.533Z,7.40
2018-11-01T05:01:22.910Z,7.40
2018-11-01T05:03:58.462Z,7.30
2018-11-01T05:06:33.919Z,7.20
2018-11-01T05:09:09.555Z,7.20
2018-11-01T05:11:44.873Z,7.20
2018-11-01T05:14:20.322Z,7.20
2018-11-01T05:16:55.756Z,7.10
2018-11-01T05:19:31.282Z,7.10
2018-11-01T05:22:06.784Z,7.10
2018-11-01T05:24:42.199Z,7.00
2018-11-01T05:27:17.522Z,7.00
2018-11-01T05:29:53.345Z,7.00
2018-11-01T05:32:28.784Z,7.00
2018-11-01T05:35:04.197Z,7.10
2018-11-01T05:37:42.013Z,7.20
2018-11-01T05:40:17.504Z,7.20
2018-11-01T05:42:52.855Z,7.30
2018-11-01T05:45:28.494Z,7.40
2018-11-01T05:48:04.111Z,7.40
2018-11-01T05:50:39.601Z,7.40
2018-11-01T05:53:15.117Z,7.50
2018-11-01T05:55:50.732Z,7.50
2018-11-01T05:58:26.129Z,7.50
2018-11-01T06:01:03.180Z,7.50
2018-11-01T06:03:38.518Z,7.50
2018-11-01T06:06:14.151Z,7.50
2018-11-01T06:08:50.807Z,7.50
2018-11-01T06:11:26.358Z,7.50
2018-11-01T06:14:01.872Z,7.50
2018-11-01T06:16:37.386Z,7.50
2018-11-01T06:19:12.788Z,7.50
2018-11-01T06:21:48.329Z,7.50
2018-11-01T06:24:23.657Z,7.50
2018-11-01T06:26:59.101Z,7.40
2018-11-01T06:29:34.549Z,7.40
2018-11-01T06:32:10.257Z,7.40
2018-11-01T06:34:49.660Z,7.40
2018-11-01T06:37:25.244Z,7.30
2018-11-01T06:40:00.737Z,7.40
2018-11-01T06:42:36.358Z,7.40
2018-11-01T06:45:11.737Z,7.40
2018-11-01T06:47:47.536Z,7.50
2018-11-01T06:50:22.901Z,7.50
2018-11-01T06:52:58.508Z,7.50
2018-11-01T06:55:33.705Z,7.50
2018-11-01T06:58:09.205Z,7.50
2018-11-01T07:00:44.473Z,7.50
2018-11-01T07:03:19.894Z,7.50
2018-11-01T07:05:55.262Z,7.60
2018-11-01T07:08:30.669Z,7.60
2018-11-01T07:11:06.322Z,7.60
2018-11-01T07:13:41.676Z,7.70
2018-11-01T07:16:17.178Z,7.70
2018-11-01T07:18:52.570Z,7.70
2018-11-01T07:21:28.070Z,7.80
2018-11-01T07:24:03.524Z,7.90
2018-11-01T07:26:38.744Z,7.90
2018-11-01T07:29:14.289Z,7.90
2018-11-01T07:31:49.605Z,8.00
2018-11-01T07:34:25.215Z,8.10
2018-11-01T07:37:00.679Z,8.20
2018-11-01T07:39:36.176Z,8.30
2018-11-01T07:42:11.519Z,8.30
2018-11-01T07:44:47.318Z,8.40
2018-11-01T07:47:22.756Z,8.40
2018-11-01T07:49:58.705Z,8.40
2018-11-01T07:52:34.044Z,8.50
2018-11-01T07:55:12.067Z,8.50
2018-11-01T07:57:47.508Z,8.50
2018-11-01T08:00:23.172Z,8.50
2018-11-01T08:02:58.634Z,8.50
2018-11-01T08:05:34.091Z,8.60
2018-11-01T08:08:09.576Z,8.70
2018-11-01T08:10:45.166Z,8.70
2018-11-01T08:13:20.717Z,8.80
2018-11-01T08:15:56.134Z,8.80
2018-11-01T08:18:38.288Z,8.80
2018-11-01T08:21:13.819Z,8.80
2018-11-01T08:23:49.183Z,8.80
2018-11-01T08:26:24.697Z,8.80
2018-11-01T08:29:00.027Z,8.90
2018-11-01T08:31:35.536Z,9.00
2018-11-01T08:34:10.949Z,9.10
2018-11-01T08:36:46.368Z,9.20
2018-11-01T08:39:21.659Z,9.30
2018-11-01T08:41:57.041Z,9.50
2018-11-01T08:44:32.497Z,9.60
2018-11-01T08:47:07.892Z,9.80
2018-11-01T08:49:43.542Z,9.90
2018-11-01T08:52:19.170Z,10.00
2018-11-01T08:54:54.590Z,10.20
2018-11-01T08:57:30.150Z,10.20
2018-11-01T09:00:06.493Z,10.30
2018-11-01T09:02:42.642Z,10.30
2018-11-01T09:05:18.133Z,10.30
2018-11-01T09:07:53.808Z,10.30
2018-11-01T09:10:29.267Z,10.30
2018-11-01T09:13:04.608Z,10.40
2018-11-01T09:15:40.003Z,10.40
2018-11-01T09:18:15.572Z,10.40
2018-11-01T09:20:51.069Z,10.50
2018-11-01T09:23:26.607Z,10.60
2018-11-01T09:26:01.961Z,10.70
2018-11-01T09:28:37.408Z,10.80
2018-11-01T09:31:12.676Z,10.80
2018-11-01T09:33:48.156Z,10.80
2018-11-01T09:36:23.616Z,10.80
2018-11-01T09:38:59.136Z,10.90
2018-11-01T09:41:34.513Z,11.00
2018-11-01T09:44:10.113Z,11.00
2018-11-01T09:46:45.774Z,11.20
2018-11-01T09:49:21.031Z,11.20
2018-11-01T09:51:56.429Z,11.20
2018-11-01T09:54:31.881Z,11.30
2018-11-01T09:57:07.441Z,11.30
2018-11-01T09:59:42.990Z,11.30
2018-11-01T10:02:18.472Z,11.30
2018-11-01T10:04:54.139Z,11.30
2018-11-01T10:07:29.582Z,11.30
2018-11-01T10:10:06.201Z,11.20
2018-11-01T10:12:41.939Z,11.10
2018-11-01T10:15:17.870Z,11.10
2018-11-01T10:17:53.498Z,11.10
2018-11-01T10:20:28.534Z,11.20
2018-11-01T10:23:03.891Z,11.40
2018-11-01T10:25:39.454Z,11.40
2018-11-01T10:28:14.869Z,11.50
2018-11-01T10:30:50.557Z,11.60
2018-11-01T10:33:25.976Z,11.70
2018-11-01T10:36:01.551Z,11.60
2018-11-01T10:38:36.879Z,11.70
2018-11-01T10:41:12.301Z,11.80
2018-11-01T10:43:47.652Z,11.80
2018-11-01T10:46:23.185Z,11.90
2018-11-01T10:48:58.575Z,11.90
2018-11-01T10:51:33.982Z,12.10
2018-11-01T10:54:09.350Z,12.20
2018-11-01T10:56:44.841Z,12.30
2018-11-01T10:59:20.142Z,12.50
2018-11-01T11:02:01.124Z,12.50
2018-11-01T11:04:36.490Z,12.70
2018-11-01T11:07:12.092Z,12.80
2018-11-01T11:09:47.609Z,12.70
2018-11-01T11:12:23.057Z,12.70
2018-11-01T11:14:58.405Z,12.80
2018-11-01T11:17:34.210Z,12.90
2018-11-01T11:20:11.541Z,12.90
2018-11-01T11:22:47.015Z,12.90
2018-11-01T11:25:22.344Z,12.90
2018-11-01T11:27:57.905Z,13.00
2018-11-01T11:30:33.337Z,12.90
2018-11-01T11:33:08.632Z,13.00
2018-11-01T11:35:44.153Z,12.90
2018-11-01T11:38:19.749Z,13.00
2018-11-01T11:40:55.201Z,13.00
2018-11-01T11:43:31.529Z,13.10
2018-11-01T11:46:07.093Z,13.00
2018-11-01T11:48:42.597Z,12.90
2018-11-01T11:51:18.194Z,13.00
2018-11-01T11:53:53.701Z,12.80
2018-11-01T11:56:29.019Z,12.90
2018-11-01T11:59:04.928Z,12.90
2018-11-01T12:01:40.417Z,12.90
2018-11-01T12:04:15.782Z,12.80
2018-11-01T12:06:51.004Z,12.80
2018-11-01T12:09:26.730Z,12.80
2018-11-01T12:12:02.197Z,12.70
2018-11-01T12:14:37.635Z,12.60
2018-11-01T12:17:13.205Z,12.60
2018-11-01T12:19:48.873Z,12.60
2018-11-01T12:22:24.275Z,12.70
2018-11-01T12:24:59.754Z,12.70
2018-11-01T12:27:35.100Z,12.70
2018-11-01T12:30:12.061Z,12.70
2018-11-01T12:32:47.486Z,12.80
2018-11-01T12:35:23.146Z,12.80
2018-11-01T12:37:58.560Z,12.70
2018-11-01T12:40:34.007Z,12.80
2018-11-01T12:43:09.349Z,12.80
2018-11-01T12:45:44.776Z,12.70
2018-11-01T12:48:20.340Z,12.70
2018-11-01T12:50:55.881Z,12.60
2018-11-01T12:53:31.272Z,12.50
2018-11-01T12:56:06.804Z,12.50
2018-11-01T12:58:42.222Z,12.30
2018-11-01T13:01:17.713Z,12.30
2018-11-01T13:03:53.133Z,12.40
2018-11-01T13:06:28.618Z,12.40
2018-11-01T13:09:05.179Z,12.30
2018-11-01T13:11:40.742Z,12.30
2018-11-01T13:14:16.266Z,12.20
2018-11-01T13:16:51.661Z,12.30
2018-11-01T13:19:27.130Z,12.30
2018-11-01T13:22:02.725Z,12.30
2018-11-01T13:24:38.350Z,12.30
2018-11-01T13:27:13.897Z,12.20
2018-11-01T13:29:49.183Z,12.30
2018-11-01T13:32:24.925Z,12.20
2018-11-01T13:35:06.671Z,12.20
2018-11-01T13:37:42.268Z,12.20
2018-11-01T13:40:18.121Z,12.20
2018-11-01T13:42:53.354Z,12.20
2018-11-01T13:45:28.931Z,12.20
2018-11-01T13:48:04.644Z,12.20
2018-11-01T13:50:40.029Z,12.10
2018-11-01T13:53:15.647Z,12.00
2018-11-01T13:55:51.183Z,12.00
2018-11-01T13:58:26.655Z,12.00
2018-11-01T14:01:02.203Z,11.90
2018-11-01T14:03:37.824Z,11.90
2018-11-01T14:06:13.324Z,11.80
2018-11-01T14:08:48.835Z,11.80
2018-11-01T14:11:24.469Z,11.70
2018-11-01T14:14:00.541Z,11.70
2018-11-01T14:16:35.483Z,11.70
2018-11-01T14:19:11.244Z,11.60
2018-11-01T14:21:46.532Z,11.60
2018-11-01T14:24:22.013Z,11.60
2018-11-01T14:26:57.344Z,11.60
2018-11-01T14:29:32.972Z,11.60
2018-11-01T14:32:08.367Z,11.60
2018-11-01T14:34:43.733Z,11.60
2018-11-01T14:37:18.970Z,11.60
2018-11-01T14:39:54.437Z,11.60
2018-11-01T14:42:29.869Z,11.50
2018-11-01T14:45:05.947Z,11.50
2018-11-01T14:47:41.440Z,11.50
2018-11-01T14:50:17.036Z,11.50
2018-11-01T14:52:53.017Z,11.40
2018-11-01T14:55:29.422Z,11.40
2018-11-01T14:58:04.918Z,11.30
2018-11-01T15:00:38.972Z,11.30
2018-11-01T15:03:14.479Z,11.30
2018-11-01T15:05:50.215Z,11.30
2018-11-01T15:08:25.737Z,11.20
2018-11-01T15:11:01.117Z,11.20
2018-11-01T15:13:36.642Z,11.10
2018-11-01T15:16:12.317Z,11.10
2018-11-01T15:18:47.677Z,11.10
2018-11-01T15:21:23.347Z,11.10
2018-11-01T15:23:58.694Z,11.00
2018-11-01T15:26:34.113Z,11.00
2018-11-01T15:29:10.110Z,11.00
2018-11-01T15:31:45.561Z,10.90
2018-11-01T15:34:20.924Z,10.90
2018-11-01T15:36:56.480Z,10.90
2018-11-01T15:39:31.879Z,10.90
2018-11-01T15:42:07.462Z,10.90
2018-11-01T15:44:42.851Z,10.80
2018-11-01T15:47:18.414Z,10.80
2018-11-01T15:49:54.009Z,10.80
2018-11-01T15:52:29.645Z,10.80
2018-11-01T15:55:06.173Z,10.80
2018-11-01T15:57:41.593Z,10.70
2018-11-01T16:00:17.068Z,10.70
2018-11-01T16:02:52.498Z,10.70
2018-11-01T16:05:27.747Z,10.60
2018-11-01T16:08:03.541Z,10.60
2018-11-01T16:10:38.789Z,10.60
2018-11-01T16:13:14.217Z,10.60
2018-11-01T16:15:49.718Z,10.50
2018-11-01T16:18:25.293Z,10.50
2018-11-01T16:21:00.572Z,10.50
2018-11-01T16:23:36.103Z,10.50
2018-11-01T16:26:11.982Z,10.50
2018-11-01T16:28:47.709Z,10.50
2018-11-01T16:31:23.096Z,10.50
2018-11-01T16:33:58.573Z,10.40
2018-11-01T16:36:34.167Z,10.40
2018-11-01T16:39:11.414Z,10.50
2018-11-01T16:41:46.796Z,10.40
2018-11-01T16:44:22.514Z,10.40
2018-11-01T16:46:57.797Z,10.40
2018-11-01T16:49:33.377Z,10.40
2018-11-01T16:52:08.733Z,10.40
2018-11-01T16:54:44.341Z,10.40
2018-11-01T16:57:19.661Z,10.40
2018-11-01T16:59:55.602Z,10.30
2018-11-01T17:02:31.278Z,10.30
2018-11-01T17:05:07.428Z,10.30
2018-11-01T17:07:42.676Z,10.30
2018-11-01T17:10:18.157Z,10.20
2018-11-01T17:12:53.882Z,10.20
2018-11-01T17:15:29.494Z,10.20
2018-11-01T17:18:04.927Z,10.20
2018-11-01T17:20:40.574Z,10.20
2018-11-01T17:23:16.271Z,10.20
2018-11-01T17:25:51.852Z,10.20
2018-11-01T17:28:27.047Z,10.20
2018-11-01T17:31:02.493Z,10.20
2018-11-01T17:33:37.861Z,10.20
2018-11-01T17:36:14.474Z,10.20
2018-11-01T17:38:50.795Z,10.20
2018-11-01T17:41:26.213Z,10.10
2018-11-01T17:44:01.724Z,10.20
2018-11-01T17:46:37.180Z,10.10
2018-11-01T17:49:12.653Z,10.10
2018-11-01T17:51:48.065Z,10.10
2018-11-01T17:54:23.404Z,10.10
2018-11-01T17:56:58.946Z,10.00
2018-11-01T17:59:34.496Z,10.00
2018-11-01T18:02:10.132Z,10.00
2018-11-01T18:04:45.540Z,9.90
2018-11-01T18:07:21.154Z,9.90
2018-11-01T18:09:56.816Z,9.90
2018-11-01T18:12:32.409Z,9.90
2018-11-01T18:15:08.279Z,9.90
2018-11-01T18:17:43.649Z,9.90
2018-11-01T18:20:19.170Z,9.90
2018-11-01T18:22:54.739Z,9.90
2018-11-01T18:25:30.141Z,9.90
2018-11-01T18:28:05.891Z,9.90
2018-11-01T18:30:41.341Z,9.90
2018-11-01T18:33:16.854Z,9.90
2018-11-01T18:35:52.312Z,9.90
2018-11-01T18:38:27.701Z,9.80
2018-11-01T18:41:03.155Z,9.80
2018-11-01T18:43:38.845Z,9.80
2018-11-01T18:46:14.243Z,9.80
2018-11-01T18:48:50.277Z,9.80
2018-11-01T18:51:25.864Z,9.80
2018-11-01T18:54:08.249Z,9.80
2018-11-01T18:56:43.565Z,9.80
2018-11-01T18:59:19.479Z,9.80
2018-11-01T19:01:54.833Z,9.80
2018-11-01T19:04:30.368Z,9.70
2018-11-01T19:07:05.969Z,9.70
2018-11-01T19:09:41.561Z,9.70
2018-11-01T19:12:16.932Z,9.60
2018-11-01T19:14:52.760Z,9.60
2018-11-01T19:17:28.335Z,9.70
2018-11-01T19:20:04.499Z,9.60
2018-11-01T19:22:40.510Z,9.60
2018-11-01T19:25:15.921Z,9.60
2018-11-01T19:27:51.549Z,9.60
2018-11-01T19:30:27.183Z,9.60
2018-11-01T19:33:02.608Z,9.60
2018-11-01T19:35:38.068Z,9.60
2018-11-01T19:38:13.574Z,9.70
2018-11-01T19:40:49.085Z,9.60
2018-11-01T19:43:24.581Z,9.60
2018-11-01T19:46:01.102Z,9.70
2018-11-01T19:48:36.542Z,9.70
2018-11-01T19:51:12.095Z,9.60
2018-11-01T19:53:47.854Z,9.60
2018-11-01T19:56:23.482Z,9.70
2018-11-01T19:58:58.829Z,9.70
2018-11-01T20:01:34.406Z,9.80
2018-11-01T20:04:09.846Z,9.70
2018-11-01T20:06:45.468Z,9.70
2018-11-01T20:09:22.484Z,9.70
2018-11-01T20:11:58.363Z,9.70
2018-11-01T20:14:33.883Z,9.70
2018-11-01T20:17:09.593Z,9.70
2018-11-01T20:19:45.454Z,9.70
2018-11-01T20:22:21.089Z,9.80
2018-11-01T20:24:56.609Z,9.70
2018-11-01T20:27:32.211Z,9.70
2018-11-01T20:30:11.427Z,9.70
2018-11-01T20:32:46.984Z,9.70
2018-11-01T20:35:22.315Z,9.70
2018-11-01T20:37:58.076Z,9.60
2018-11-01T20:40:33.319Z,9.60
2018-11-01T20:43:08.857Z,9.50
2018-11-01T20:45:44.204Z,9.40
2018-11-01T20:48:19.851Z,9.30
2018-11-01T20:50:55.537Z,9.30
2018-11-01T20:53:30.945Z,9.30
2018-11-01T20:56:06.412Z,9.30
2018-11-01T20:58:41.865Z,9.20
2018-11-01T21:01:17.203Z,9.10
2018-11-01T21:03:52.898Z,9.00
2018-11-01T21:06:28.245Z,8.90
2018-11-01T21:09:05.059Z,8.80
2018-11-01T21:11:40.861Z,8.80
2018-11-01T21:14:16.037Z,8.70
2018-11-01T21:16:51.542Z,8.70
2018-11-01T21:19:28.057Z,8.60
2018-11-01T21:22:03.551Z,8.60
2018-11-01T21:24:39.265Z,8.60
2018-11-01T21:27:14.677Z,8.60
2018-11-01T21:29:50.342Z,8.60
2018-11-01T21:32:25.941Z,8.70
2018-11-01T21:35:02.963Z,8.80
2018-11-01T21:37:38.336Z,8.80
2018-11-01T21:40:13.885Z,8.80
2018-11-01T21:42:49.404Z,8.80
2018-11-01T21:45:24.867Z,8.80
2018-11-01T21:48:00.164Z,8.80
2018-11-01T21:50:35.863Z,8.80
2018-11-01T21:53:11.339Z,8.90
2018-11-01T21:55:46.696Z,8.90
2018-11-01T21:58:22.877Z,9.00
2018-11-01T22:00:58.561Z,9.00
2018-11-01T22:03:34.081Z,9.00
2018-11-01T22:06:09.956Z,9.00
2018-11-01T22:08:45.438Z,9.10
2018-11-01T22:11:21.085Z,9.10
2018-11-01T22:13:56.309Z,9.10
2018-11-01T22:16:32.153Z,9.20
2018-11-01T22:19:08.283Z,9.20
2018-11-01T22:21:44.012Z,9.10
2018-11-01T22:24:19.469Z,9.10
2018-11-01T22:26:55.021Z,9.10
2018-11-01T22:29:31.642Z,9.10
2018-11-01T22:32:07.383Z,9.20
2018-11-01T22:34:42.781Z,9.10
2018-11-01T22:37:18.585Z,9.20
2018-11-01T22:39:54.131Z,9.20
2018-11-01T22:42:29.795Z,9.20
2018-11-01T22:45:06.197Z,9.20
2018-11-01T22:47:42.209Z,9.20
2018-11-01T22:50:17.593Z,9.20
2018-11-01T22:52:53.061Z,9.20
2018-11-01T22:55:28.280Z,9.20
2018-11-01T22:58:03.885Z,9.10
2018-11-01T23:00:42.304Z,9.10
2018-11-01T23:03:17.741Z,9.00
2018-11-01T23:05:53.165Z,9.00
2018-11-01T23:08:28.629Z,8.90
2018-11-01T23:11:04.090Z,8.80
2018-11-01T23:13:39.831Z,8.70
2018-11-01T23:16:15.325Z,8.70
2018-11-01T23:18:50.820Z,8.50
2018-11-01T23:21:26.305Z,8.50
2018-11-01T23:24:01.921Z,8.50
2018-11-01T23:26:37.260Z,8.50
2018-11-01T23:29:12.913Z,8.50
2018-11-01T23:31:48.356Z,8.50
2018-11-01T23:34:23.893Z,8.50
2018-11-01T23:37:04.709Z,8.50
2018-11-01T23:39:45.600Z,8.50
2018-11-01T23:42:26.305Z,8.50
2018-11-01T23:45:07.194Z,8.40
2018-11-01T23:47:47.988Z,8.50
2018-11-01T23:50:29.347Z,8.40
2018-11-01T23:53:07.694Z,8.50
2018-11-01T23:55:43.817Z,8.50
2018-11-01T23:58:19.089Z,8.30
